sensor_id;sensor_type;location;lat;lon;timestamp;P1;durP1;ratioP1;P2;durP2;ratioP2
5147;SDS011;2592;48.140;7.614;2023-03-01T00:01:32;20.50;;;16.30;;
5147;SDS011;2592;48.140;7.614;2023-03-01T00:04:00;21.50;;;16.40;;
5147;SDS011;2592;48.140;7.614;2023-03-01T00:06:26;50.73;;;36.97;;
5147;SDS011;2592;48.140;7.614;2023-03-01T00:08:53;28.77;;;21.17;;
5147;SDS011;2592;48.140;7.614;2023-03-01T00:11:20;22.90;;;17.93;;
5147;SDS011;2592;48.140;7.614;2023-03-01T00:13:47;22.80;;;17.10;;
5147;SDS011;2592;48.140;7.614;2023-03-01T00:16:14;20.70;;;16.00;;
5147;SDS011;2592;48.140;7.614;2023-03-01T00:18:41;20.03;;;16.13;;
5147;SDS011;2592;48.140;7.614;2023-03-01T00:21:09;19.77;;;16.00;;
5147;SDS011;2592;48.140;7.614;2023-03-01T00:23:36;18.77;;;16.13;;
5147;SDS011;2592;48.140;7.614;2023-03-01T00:26:05;19.53;;;16.40;;
5147;SDS011;2592;48.140;7.614;2023-03-01T00:28:32;21.67;;;15.80;;
5147;SDS011;2592;48.140;7.614;2023-03-01T00:31:02;18.53;;;15.50;;
5147;SDS011;2592;48.140;7.614;2023-03-01T00:33:28;25.90;;;19.03;;
5147;SDS011;2592;48.140;7.614;2023-03-01T00:35:57;23.60;;;17.57;;
5147;SDS011;2592;48.140;7.614;2023-03-01T00:38:25;22.07;;;17.50;;
5147;SDS011;2592;48.140;7.614;2023-03-01T00:40:51;23.63;;;17.23;;
5147;SDS011;2592;48.140;7.614;2023-03-01T00:43:17;19.60;;;16.27;;
5147;SDS011;2592;48.140;7.614;2023-03-01T00:45:44;25.50;;;18.47;;
5147;SDS011;2592;48.140;7.614;2023-03-01T00:48:10;31.20;;;20.20;;
5147;SDS011;2592;48.140;7.614;2023-03-01T00:50:37;28.87;;;18.83;;
5147;SDS011;2592;48.140;7.614;2023-03-01T00:53:03;43.37;;;24.07;;
5147;SDS011;2592;48.140;7.614;2023-03-01T00:55:31;37.13;;;23.30;;
5147;SDS011;2592;48.140;7.614;2023-03-01T00:57:57;30.70;;;20.70;;
5147;SDS011;2592;48.140;7.614;2023-03-01T01:00:24;25.37;;;18.23;;
5147;SDS011;2592;48.140;7.614;2023-03-01T01:02:52;23.37;;;16.97;;
5147;SDS011;2592;48.140;7.614;2023-03-01T01:05:18;21.10;;;15.67;;
5147;SDS011;2592;48.140;7.614;2023-03-01T01:07:45;29.50;;;20.40;;
5147;SDS011;2592;48.140;7.614;2023-03-01T01:10:12;35.13;;;21.70;;
5147;SDS011;2592;48.140;7.614;2023-03-01T01:12:43;21.20;;;16.27;;
5147;SDS011;2592;48.140;7.614;2023-03-01T01:15:09;26.53;;;16.87;;
5147;SDS011;2592;48.140;7.614;2023-03-01T01:17:38;20.43;;;15.27;;
5147;SDS011;2592;48.140;7.614;2023-03-01T01:20:04;16.33;;;14.57;;
5147;SDS011;2592;48.140;7.614;2023-03-01T01:22:31;21.43;;;15.07;;
5147;SDS011;2592;48.140;7.614;2023-03-01T01:24:57;16.63;;;14.30;;
5147;SDS011;2592;48.140;7.614;2023-03-01T01:27:24;19.03;;;15.40;;
5147;SDS011;2592;48.140;7.614;2023-03-01T01:29:53;27.10;;;16.13;;
5147;SDS011;2592;48.140;7.614;2023-03-01T01:32:20;18.67;;;13.90;;
5147;SDS011;2592;48.140;7.614;2023-03-01T01:34:46;20.70;;;15.70;;
5147;SDS011;2592;48.140;7.614;2023-03-01T01:37:12;18.07;;;14.40;;
5147;SDS011;2592;48.140;7.614;2023-03-01T01:39:39;20.00;;;14.13;;
5147;SDS011;2592;48.140;7.614;2023-03-01T01:42:05;21.60;;;14.50;;
5147;SDS011;2592;48.140;7.614;2023-03-01T01:44:33;18.30;;;14.03;;
5147;SDS011;2592;48.140;7.614;2023-03-01T01:47:02;19.07;;;15.00;;
5147;SDS011;2592;48.140;7.614;2023-03-01T01:49:31;16.67;;;14.50;;
5147;SDS011;2592;48.140;7.614;2023-03-01T01:52:02;19.60;;;14.57;;
5147;SDS011;2592;48.140;7.614;2023-03-01T01:54:31;20.63;;;14.50;;
5147;SDS011;2592;48.140;7.614;2023-03-01T01:57:04;20.33;;;15.07;;
5147;SDS011;2592;48.140;7.614;2023-03-01T01:59:31;18.63;;;14.83;;
5147;SDS011;2592;48.140;7.614;2023-03-01T02:02:00;18.83;;;14.37;;
5147;SDS011;2592;48.140;7.614;2023-03-01T02:04:28;17.50;;;14.37;;
5147;SDS011;2592;48.140;7.614;2023-03-01T02:06:57;19.33;;;14.10;;
5147;SDS011;2592;48.140;7.614;2023-03-01T02:09:24;23.10;;;14.23;;
5147;SDS011;2592;48.140;7.614;2023-03-01T02:11:50;19.33;;;15.10;;
5147;SDS011;2592;48.140;7.614;2023-03-01T02:14:17;18.20;;;14.70;;
5147;SDS011;2592;48.140;7.614;2023-03-01T02:16:43;17.60;;;13.90;;
5147;SDS011;2592;48.140;7.614;2023-03-01T02:19:13;17.10;;;13.97;;
5147;SDS011;2592;48.140;7.614;2023-03-01T02:21:45;20.33;;;14.03;;
5147;SDS011;2592;48.140;7.614;2023-03-01T02:24:19;15.57;;;13.37;;
5147;SDS011;2592;48.140;7.614;2023-03-01T02:26:50;19.90;;;14.50;;
5147;SDS011;2592;48.140;7.614;2023-03-01T02:29:19;16.33;;;13.27;;
5147;SDS011;2592;48.140;7.614;2023-03-01T02:31:46;18.60;;;12.90;;
5147;SDS011;2592;48.140;7.614;2023-03-01T02:34:13;14.53;;;12.47;;
5147;SDS011;2592;48.140;7.614;2023-03-01T02:36:41;16.60;;;14.10;;
5147;SDS011;2592;48.140;7.614;2023-03-01T02:39:10;17.67;;;13.47;;
5147;SDS011;2592;48.140;7.614;2023-03-01T02:41:39;18.33;;;14.30;;
5147;SDS011;2592;48.140;7.614;2023-03-01T02:44:07;17.40;;;13.57;;
5147;SDS011;2592;48.140;7.614;2023-03-01T02:46:41;21.27;;;15.07;;
5147;SDS011;2592;48.140;7.614;2023-03-01T02:49:16;19.60;;;13.57;;
5147;SDS011;2592;48.140;7.614;2023-03-01T02:51:45;18.60;;;13.80;;
5147;SDS011;2592;48.140;7.614;2023-03-01T02:54:16;19.37;;;14.67;;
5147;SDS011;2592;48.140;7.614;2023-03-01T02:56:44;15.40;;;13.07;;
5147;SDS011;2592;48.140;7.614;2023-03-01T02:59:13;14.73;;;13.00;;
5147;SDS011;2592;48.140;7.614;2023-03-01T03:01:41;15.10;;;12.50;;
5147;SDS011;2592;48.140;7.614;2023-03-01T03:04:08;15.90;;;12.90;;
5147;SDS011;2592;48.140;7.614;2023-03-01T03:06:35;19.80;;;14.33;;
5147;SDS011;2592;48.140;7.614;2023-03-01T03:09:02;15.47;;;13.10;;
5147;SDS011;2592;48.140;7.614;2023-03-01T03:11:28;16.70;;;13.47;;
5147;SDS011;2592;48.140;7.614;2023-03-01T03:13:55;21.23;;;13.90;;
5147;SDS011;2592;48.140;7.614;2023-03-01T03:16:22;18.07;;;13.00;;
5147;SDS011;2592;48.140;7.614;2023-03-01T03:18:50;14.40;;;12.20;;
5147;SDS011;2592;48.140;7.614;2023-03-01T03:21:17;16.23;;;14.13;;
5147;SDS011;2592;48.140;7.614;2023-03-01T03:23:43;16.37;;;13.40;;
5147;SDS011;2592;48.140;7.614;2023-03-01T03:26:10;16.60;;;13.47;;
5147;SDS011;2592;48.140;7.614;2023-03-01T03:28:40;17.43;;;13.03;;
5147;SDS011;2592;48.140;7.614;2023-03-01T03:31:06;15.47;;;12.87;;
5147;SDS011;2592;48.140;7.614;2023-03-01T03:33:33;16.97;;;13.90;;
5147;SDS011;2592;48.140;7.614;2023-03-01T03:36:01;16.37;;;12.97;;
5147;SDS011;2592;48.140;7.614;2023-03-01T03:38:27;14.83;;;12.50;;
5147;SDS011;2592;48.140;7.614;2023-03-01T03:40:59;15.03;;;12.50;;
5147;SDS011;2592;48.140;7.614;2023-03-01T03:43:27;17.57;;;14.33;;
5147;SDS011;2592;48.140;7.614;2023-03-01T03:45:53;16.80;;;13.50;;
5147;SDS011;2592;48.140;7.614;2023-03-01T03:48:22;16.87;;;13.90;;
5147;SDS011;2592;48.140;7.614;2023-03-01T03:50:49;19.20;;;13.67;;
5147;SDS011;2592;48.140;7.614;2023-03-01T03:53:17;15.43;;;13.60;;
5147;SDS011;2592;48.140;7.614;2023-03-01T03:55:43;17.60;;;13.60;;
5147;SDS011;2592;48.140;7.614;2023-03-01T03:58:10;17.57;;;13.57;;
5147;SDS011;2592;48.140;7.614;2023-03-01T04:00:37;14.77;;;12.80;;
5147;SDS011;2592;48.140;7.614;2023-03-01T04:03:04;16.90;;;12.80;;
5147;SDS011;2592;48.140;7.614;2023-03-01T04:05:30;18.37;;;13.47;;
5147;SDS011;2592;48.140;7.614;2023-03-01T04:07:57;14.33;;;12.80;;
5147;SDS011;2592;48.140;7.614;2023-03-01T04:10:33;16.20;;;13.43;;
5147;SDS011;2592;48.140;7.614;2023-03-01T04:13:00;21.47;;;13.40;;
5147;SDS011;2592;48.140;7.614;2023-03-01T04:15:26;17.77;;;14.33;;
5147;SDS011;2592;48.140;7.614;2023-03-01T04:17:54;20.93;;;14.93;;
5147;SDS011;2592;48.140;7.614;2023-03-01T04:20:21;28.43;;;17.57;;
5147;SDS011;2592;48.140;7.614;2023-03-01T04:22:50;16.57;;;13.70;;
5147;SDS011;2592;48.140;7.614;2023-03-01T04:25:16;20.23;;;14.07;;
5147;SDS011;2592;48.140;7.614;2023-03-01T04:27:44;23.00;;;14.80;;
5147;SDS011;2592;48.140;7.614;2023-03-01T04:30:10;18.10;;;13.80;;
5147;SDS011;2592;48.140;7.614;2023-03-01T04:32:37;16.00;;;12.90;;
5147;SDS011;2592;48.140;7.614;2023-03-01T04:35:03;20.20;;;13.13;;
5147;SDS011;2592;48.140;7.614;2023-03-01T04:37:30;16.60;;;13.27;;
5147;SDS011;2592;48.140;7.614;2023-03-01T04:39:56;18.00;;;15.37;;
5147;SDS011;2592;48.140;7.614;2023-03-01T04:42:23;18.50;;;13.63;;
5147;SDS011;2592;48.140;7.614;2023-03-01T04:44:51;18.67;;;13.20;;
5147;SDS011;2592;48.140;7.614;2023-03-01T04:47:17;21.50;;;15.70;;
5147;SDS011;2592;48.140;7.614;2023-03-01T04:49:43;18.47;;;14.13;;
5147;SDS011;2592;48.140;7.614;2023-03-01T04:52:10;18.20;;;14.50;;
5147;SDS011;2592;48.140;7.614;2023-03-01T04:54:36;19.20;;;14.30;;
5147;SDS011;2592;48.140;7.614;2023-03-01T04:57:03;17.20;;;14.80;;
5147;SDS011;2592;48.140;7.614;2023-03-01T04:59:29;22.40;;;15.57;;
5147;SDS011;2592;48.140;7.614;2023-03-01T05:01:57;23.50;;;17.20;;
5147;SDS011;2592;48.140;7.614;2023-03-01T05:04:25;42.67;;;24.40;;
5147;SDS011;2592;48.140;7.614;2023-03-01T05:06:51;30.60;;;19.53;;
5147;SDS011;2592;48.140;7.614;2023-03-01T05:09:18;25.20;;;18.50;;
5147;SDS011;2592;48.140;7.614;2023-03-01T05:11:45;20.23;;;16.43;;
5147;SDS011;2592;48.140;7.614;2023-03-01T05:14:11;21.63;;;13.10;;
5147;SDS011;2592;48.140;7.614;2023-03-01T05:16:37;20.27;;;15.97;;
5147;SDS011;2592;48.140;7.614;2023-03-01T05:19:05;26.07;;;18.40;;
5147;SDS011;2592;48.140;7.614;2023-03-01T05:21:36;17.77;;;14.63;;
5147;SDS011;2592;48.140;7.614;2023-03-01T05:24:22;21.90;;;14.20;;
5147;SDS011;2592;48.140;7.614;2023-03-01T05:26:49;18.23;;;13.87;;
5147;SDS011;2592;48.140;7.614;2023-03-01T05:29:16;15.10;;;13.07;;
5147;SDS011;2592;48.140;7.614;2023-03-01T05:31:43;19.00;;;14.67;;
5147;SDS011;2592;48.140;7.614;2023-03-01T05:34:10;15.70;;;13.93;;
5147;SDS011;2592;48.140;7.614;2023-03-01T05:36:37;15.70;;;13.50;;
5147;SDS011;2592;48.140;7.614;2023-03-01T05:39:04;19.27;;;14.17;;
5147;SDS011;2592;48.140;7.614;2023-03-01T05:41:30;18.00;;;14.57;;
5147;SDS011;2592;48.140;7.614;2023-03-01T05:43:56;19.63;;;14.80;;
5147;SDS011;2592;48.140;7.614;2023-03-01T05:46:23;27.03;;;18.03;;
5147;SDS011;2592;48.140;7.614;2023-03-01T05:48:50;22.87;;;16.13;;
5147;SDS011;2592;48.140;7.614;2023-03-01T05:51:17;19.10;;;15.23;;
5147;SDS011;2592;48.140;7.614;2023-03-01T05:53:44;18.70;;;14.10;;
5147;SDS011;2592;48.140;7.614;2023-03-01T05:56:10;20.57;;;14.83;;
5147;SDS011;2592;48.140;7.614;2023-03-01T05:58:36;17.53;;;14.40;;
5147;SDS011;2592;48.140;7.614;2023-03-01T06:01:04;23.90;;;16.53;;
5147;SDS011;2592;48.140;7.614;2023-03-01T06:03:30;20.67;;;15.33;;
5147;SDS011;2592;48.140;7.614;2023-03-01T06:05:57;19.67;;;14.43;;
5147;SDS011;2592;48.140;7.614;2023-03-01T06:08:25;16.83;;;14.23;;
5147;SDS011;2592;48.140;7.614;2023-03-01T06:10:52;81.23;;;51.13;;
5147;SDS011;2592;48.140;7.614;2023-03-01T06:13:18;77.53;;;61.67;;
5147;SDS011;2592;48.140;7.614;2023-03-01T06:15:45;48.60;;;39.43;;
5147;SDS011;2592;48.140;7.614;2023-03-01T06:18:11;37.10;;;31.43;;
5147;SDS011;2592;48.140;7.614;2023-03-01T06:20:38;26.80;;;21.43;;
5147;SDS011;2592;48.140;7.614;2023-03-01T06:23:04;21.00;;;18.70;;
5147;SDS011;2592;48.140;7.614;2023-03-01T06:25:32;26.07;;;20.70;;
5147;SDS011;2592;48.140;7.614;2023-03-01T06:27:58;24.93;;;19.97;;
5147;SDS011;2592;48.140;7.614;2023-03-01T06:30:25;26.10;;;20.67;;
5147;SDS011;2592;48.140;7.614;2023-03-01T06:32:51;22.67;;;18.80;;
5147;SDS011;2592;48.140;7.614;2023-03-01T06:35:25;19.43;;;16.20;;
5147;SDS011;2592;48.140;7.614;2023-03-01T06:37:54;17.17;;;15.37;;
5147;SDS011;2592;48.140;7.614;2023-03-01T06:40:22;20.83;;;16.20;;
5147;SDS011;2592;48.140;7.614;2023-03-01T06:42:50;18.83;;;15.20;;
5147;SDS011;2592;48.140;7.614;2023-03-01T06:45:17;19.27;;;16.30;;
5147;SDS011;2592;48.140;7.614;2023-03-01T06:47:43;17.30;;;15.17;;
5147;SDS011;2592;48.140;7.614;2023-03-01T06:50:10;21.60;;;15.57;;
5147;SDS011;2592;48.140;7.614;2023-03-01T06:52:36;18.90;;;15.70;;
5147;SDS011;2592;48.140;7.614;2023-03-01T06:55:03;20.87;;;15.20;;
5147;SDS011;2592;48.140;7.614;2023-03-01T06:57:30;18.33;;;14.70;;
5147;SDS011;2592;48.140;7.614;2023-03-01T06:59:58;22.57;;;15.07;;
5147;SDS011;2592;48.140;7.614;2023-03-01T07:02:24;16.67;;;14.87;;
5147;SDS011;2592;48.140;7.614;2023-03-01T07:04:50;23.53;;;16.57;;
5147;SDS011;2592;48.140;7.614;2023-03-01T07:07:17;24.00;;;15.10;;
5147;SDS011;2592;48.140;7.614;2023-03-01T07:09:44;21.50;;;16.90;;
5147;SDS011;2592;48.140;7.614;2023-03-01T07:12:10;20.33;;;14.83;;
5147;SDS011;2592;48.140;7.614;2023-03-01T07:14:36;20.07;;;16.77;;
5147;SDS011;2592;48.140;7.614;2023-03-01T07:17:04;24.23;;;16.93;;
5147;SDS011;2592;48.140;7.614;2023-03-01T07:19:30;27.37;;;15.97;;
5147;SDS011;2592;48.140;7.614;2023-03-01T07:21:57;21.07;;;16.77;;
5147;SDS011;2592;48.140;7.614;2023-03-01T07:24:23;18.43;;;15.50;;
5147;SDS011;2592;48.140;7.614;2023-03-01T07:26:50;17.93;;;15.90;;
5147;SDS011;2592;48.140;7.614;2023-03-01T07:29:16;19.53;;;15.80;;
5147;SDS011;2592;48.140;7.614;2023-03-01T07:31:43;19.40;;;15.63;;
5147;SDS011;2592;48.140;7.614;2023-03-01T07:34:11;19.07;;;15.00;;
5147;SDS011;2592;48.140;7.614;2023-03-01T07:36:37;19.60;;;14.20;;
5147;SDS011;2592;48.140;7.614;2023-03-01T07:39:04;20.50;;;15.80;;
5147;SDS011;2592;48.140;7.614;2023-03-01T07:41:31;16.60;;;14.60;;
5147;SDS011;2592;48.140;7.614;2023-03-01T07:43:57;16.97;;;14.93;;
5147;SDS011;2592;48.140;7.614;2023-03-01T07:46:23;18.23;;;14.67;;
5147;SDS011;2592;48.140;7.614;2023-03-01T07:48:49;16.67;;;14.60;;
5147;SDS011;2592;48.140;7.614;2023-03-01T07:51:17;18.50;;;14.67;;
5147;SDS011;2592;48.140;7.614;2023-03-01T07:53:45;26.67;;;18.00;;
5147;SDS011;2592;48.140;7.614;2023-03-01T07:56:12;23.43;;;16.97;;
5147;SDS011;2592;48.140;7.614;2023-03-01T07:58:39;25.80;;;19.10;;
5147;SDS011;2592;48.140;7.614;2023-03-01T08:01:06;21.37;;;16.40;;
5147;SDS011;2592;48.140;7.614;2023-03-01T08:03:33;23.90;;;16.60;;
5147;SDS011;2592;48.140;7.614;2023-03-01T08:05:59;27.67;;;16.60;;
5147;SDS011;2592;48.140;7.614;2023-03-01T08:08:27;25.67;;;17.97;;
5147;SDS011;2592;48.140;7.614;2023-03-01T08:10:55;17.40;;;14.97;;
5147;SDS011;2592;48.140;7.614;2023-03-01T08:13:22;19.30;;;15.93;;
5147;SDS011;2592;48.140;7.614;2023-03-01T08:15:48;19.23;;;16.73;;
5147;SDS011;2592;48.140;7.614;2023-03-01T08:18:14;24.60;;;16.83;;
5147;SDS011;2592;48.140;7.614;2023-03-01T08:20:41;24.80;;;16.80;;
5147;SDS011;2592;48.140;7.614;2023-03-01T08:23:07;24.60;;;16.43;;
5147;SDS011;2592;48.140;7.614;2023-03-01T08:25:35;21.27;;;17.70;;
5147;SDS011;2592;48.140;7.614;2023-03-01T08:28:01;22.33;;;16.93;;
5147;SDS011;2592;48.140;7.614;2023-03-01T08:30:28;19.83;;;17.00;;
5147;SDS011;2592;48.140;7.614;2023-03-01T08:32:54;24.70;;;17.17;;
5147;SDS011;2592;48.140;7.614;2023-03-01T08:35:21;19.33;;;15.00;;
5147;SDS011;2592;48.140;7.614;2023-03-01T08:37:47;18.00;;;15.80;;
5147;SDS011;2592;48.140;7.614;2023-03-01T08:40:14;21.10;;;16.43;;
5147;SDS011;2592;48.140;7.614;2023-03-01T08:42:41;20.80;;;16.17;;
5147;SDS011;2592;48.140;7.614;2023-03-01T08:45:09;19.70;;;16.90;;
5147;SDS011;2592;48.140;7.614;2023-03-01T08:47:35;17.97;;;15.43;;
5147;SDS011;2592;48.140;7.614;2023-03-01T08:50:02;22.97;;;17.13;;
5147;SDS011;2592;48.140;7.614;2023-03-01T08:52:29;23.70;;;17.40;;
5147;SDS011;2592;48.140;7.614;2023-03-01T08:54:55;17.80;;;15.00;;
5147;SDS011;2592;48.140;7.614;2023-03-01T08:57:22;18.27;;;15.93;;
5147;SDS011;2592;48.140;7.614;2023-03-01T08:59:49;22.13;;;17.37;;
5147;SDS011;2592;48.140;7.614;2023-03-01T09:02:16;21.60;;;17.70;;
5147;SDS011;2592;48.140;7.614;2023-03-01T09:04:43;21.27;;;16.50;;
5147;SDS011;2592;48.140;7.614;2023-03-01T09:07:10;21.60;;;16.33;;
5147;SDS011;2592;48.140;7.614;2023-03-01T09:09:37;23.43;;;15.93;;
5147;SDS011;2592;48.140;7.614;2023-03-01T09:12:03;21.80;;;16.90;;
5147;SDS011;2592;48.140;7.614;2023-03-01T09:14:30;21.43;;;17.00;;
5147;SDS011;2592;48.140;7.614;2023-03-01T09:16:57;19.30;;;16.47;;
5147;SDS011;2592;48.140;7.614;2023-03-01T09:19:27;23.90;;;17.50;;
5147;SDS011;2592;48.140;7.614;2023-03-01T09:21:54;20.37;;;17.17;;
5147;SDS011;2592;48.140;7.614;2023-03-01T09:24:21;23.23;;;17.40;;
5147;SDS011;2592;48.140;7.614;2023-03-01T09:26:48;24.60;;;16.93;;
5147;SDS011;2592;48.140;7.614;2023-03-01T09:29:14;21.23;;;17.00;;
5147;SDS011;2592;48.140;7.614;2023-03-01T09:31:41;22.93;;;17.23;;
5147;SDS011;2592;48.140;7.614;2023-03-01T09:34:09;25.13;;;17.33;;
5147;SDS011;2592;48.140;7.614;2023-03-01T09:36:35;23.93;;;16.90;;
5147;SDS011;2592;48.140;7.614;2023-03-01T09:39:02;23.90;;;17.83;;
5147;SDS011;2592;48.140;7.614;2023-03-01T09:41:37;40.03;;;23.57;;
5147;SDS011;2592;48.140;7.614;2023-03-01T09:44:05;30.57;;;21.40;;
5147;SDS011;2592;48.140;7.614;2023-03-01T09:46:36;29.50;;;21.90;;
5147;SDS011;2592;48.140;7.614;2023-03-01T09:49:04;27.00;;;19.50;;
5147;SDS011;2592;48.140;7.614;2023-03-01T09:51:36;32.87;;;21.77;;
5147;SDS011;2592;48.140;7.614;2023-03-01T09:54:03;23.50;;;19.47;;
5147;SDS011;2592;48.140;7.614;2023-03-01T09:56:32;31.77;;;20.43;;
5147;SDS011;2592;48.140;7.614;2023-03-01T09:59:02;24.60;;;17.83;;
5147;SDS011;2592;48.140;7.614;2023-03-01T10:01:34;28.77;;;19.47;;
5147;SDS011;2592;48.140;7.614;2023-03-01T10:04:06;31.00;;;18.00;;
5147;SDS011;2592;48.140;7.614;2023-03-01T10:06:37;25.43;;;18.07;;
5147;SDS011;2592;48.140;7.614;2023-03-01T10:09:05;25.10;;;20.27;;
5147;SDS011;2592;48.140;7.614;2023-03-01T10:11:35;23.93;;;18.00;;
5147;SDS011;2592;48.140;7.614;2023-03-01T10:14:03;27.40;;;19.50;;
5147;SDS011;2592;48.140;7.614;2023-03-01T10:16:34;26.80;;;19.73;;
5147;SDS011;2592;48.140;7.614;2023-03-01T10:19:05;23.77;;;18.70;;
5147;SDS011;2592;48.140;7.614;2023-03-01T10:21:32;23.70;;;19.07;;
5147;SDS011;2592;48.140;7.614;2023-03-01T10:24:07;27.70;;;20.73;;
5147;SDS011;2592;48.140;7.614;2023-03-01T10:26:40;24.93;;;19.60;;
5147;SDS011;2592;48.140;7.614;2023-03-01T10:29:09;24.47;;;20.63;;
5147;SDS011;2592;48.140;7.614;2023-03-01T10:31:37;23.23;;;18.43;;
5147;SDS011;2592;48.140;7.614;2023-03-01T10:34:07;23.97;;;18.33;;
5147;SDS011;2592;48.140;7.614;2023-03-01T10:36:34;28.83;;;18.97;;
5147;SDS011;2592;48.140;7.614;2023-03-01T10:39:00;27.80;;;18.83;;
5147;SDS011;2592;48.140;7.614;2023-03-01T10:41:40;26.07;;;20.83;;
5147;SDS011;2592;48.140;7.614;2023-03-01T10:44:10;24.50;;;18.70;;
5147;SDS011;2592;48.140;7.614;2023-03-01T10:46:59;28.97;;;23.07;;
5147;SDS011;2592;48.140;7.614;2023-03-01T10:49:26;26.13;;;19.87;;
5147;SDS011;2592;48.140;7.614;2023-03-01T10:51:52;26.43;;;20.23;;
5147;SDS011;2592;48.140;7.614;2023-03-01T10:54:20;29.63;;;21.20;;
5147;SDS011;2592;48.140;7.614;2023-03-01T10:56:49;25.60;;;20.80;;
5147;SDS011;2592;48.140;7.614;2023-03-01T10:59:20;28.30;;;21.40;;
5147;SDS011;2592;48.140;7.614;2023-03-01T11:01:49;29.70;;;24.10;;
5147;SDS011;2592;48.140;7.614;2023-03-01T11:04:26;24.33;;;19.90;;
5147;SDS011;2592;48.140;7.614;2023-03-01T11:06:57;23.43;;;19.80;;
5147;SDS011;2592;48.140;7.614;2023-03-01T11:09:24;24.70;;;18.30;;
5147;SDS011;2592;48.140;7.614;2023-03-01T11:11:53;28.20;;;20.10;;
5147;SDS011;2592;48.140;7.614;2023-03-01T11:14:20;39.13;;;28.17;;
5147;SDS011;2592;48.140;7.614;2023-03-01T11:16:48;34.37;;;23.70;;
5147;SDS011;2592;48.140;7.614;2023-03-01T11:19:18;36.07;;;25.10;;
5147;SDS011;2592;48.140;7.614;2023-03-01T11:21:49;25.67;;;20.20;;
5147;SDS011;2592;48.140;7.614;2023-03-01T11:24:16;29.10;;;21.30;;
5147;SDS011;2592;48.140;7.614;2023-03-01T11:26:44;32.07;;;24.13;;
5147;SDS011;2592;48.140;7.614;2023-03-01T11:29:15;24.67;;;18.13;;
5147;SDS011;2592;48.140;7.614;2023-03-01T11:31:43;31.80;;;20.70;;
5147;SDS011;2592;48.140;7.614;2023-03-01T11:34:12;28.20;;;20.73;;
5147;SDS011;2592;48.140;7.614;2023-03-01T11:36:40;28.20;;;21.27;;
5147;SDS011;2592;48.140;7.614;2023-03-01T11:39:12;32.20;;;22.47;;
5147;SDS011;2592;48.140;7.614;2023-03-01T11:41:41;23.53;;;17.97;;
5147;SDS011;2592;48.140;7.614;2023-03-01T11:44:10;27.37;;;19.93;;
5147;SDS011;2592;48.140;7.614;2023-03-01T11:47:01;30.07;;;20.20;;
5147;SDS011;2592;48.140;7.614;2023-03-01T11:49:34;41.53;;;23.27;;
5147;SDS011;2592;48.140;7.614;2023-03-01T11:52:04;27.77;;;20.00;;
5147;SDS011;2592;48.140;7.614;2023-03-01T11:54:39;28.70;;;19.70;;
5147;SDS011;2592;48.140;7.614;2023-03-01T11:57:08;29.97;;;19.73;;
5147;SDS011;2592;48.140;7.614;2023-03-01T11:59:41;46.13;;;26.43;;
5147;SDS011;2592;48.140;7.614;2023-03-01T12:02:19;37.70;;;23.90;;
5147;SDS011;2592;48.140;7.614;2023-03-01T12:04:53;36.70;;;21.87;;
5147;SDS011;2592;48.140;7.614;2023-03-01T12:07:26;35.57;;;21.67;;
5147;SDS011;2592;48.140;7.614;2023-03-01T12:12:43;30.70;;;20.50;;
5147;SDS011;2592;48.140;7.614;2023-03-01T12:15:29;27.43;;;20.17;;
5147;SDS011;2592;48.140;7.614;2023-03-01T12:18:12;39.60;;;24.00;;
5147;SDS011;2592;48.140;7.614;2023-03-01T12:20:41;47.47;;;25.43;;
5147;SDS011;2592;48.140;7.614;2023-03-01T12:25:57;47.57;;;27.50;;
5147;SDS011;2592;48.140;7.614;2023-03-01T12:33:59;30.80;;;20.70;;
5147;SDS011;2592;48.140;7.614;2023-03-01T12:36:42;30.37;;;22.00;;
5147;SDS011;2592;48.140;7.614;2023-03-01T12:39:17;42.60;;;23.67;;
5147;SDS011;2592;48.140;7.614;2023-03-01T12:41:47;57.77;;;29.80;;
5147;SDS011;2592;48.140;7.614;2023-03-01T12:44:23;43.93;;;24.00;;
5147;SDS011;2592;48.140;7.614;2023-03-01T12:46:56;62.00;;;33.20;;
5147;SDS011;2592;48.140;7.614;2023-03-01T12:49:28;37.73;;;24.60;;
5147;SDS011;2592;48.140;7.614;2023-03-01T12:51:57;25.60;;;19.00;;
5147;SDS011;2592;48.140;7.614;2023-03-01T12:54:26;23.93;;;19.07;;
5147;SDS011;2592;48.140;7.614;2023-03-01T12:56:53;23.07;;;17.63;;
5147;SDS011;2592;48.140;7.614;2023-03-01T12:59:20;25.00;;;18.03;;
5147;SDS011;2592;48.140;7.614;2023-03-01T13:01:51;31.97;;;18.03;;
5147;SDS011;2592;48.140;7.614;2023-03-01T13:04:22;25.03;;;17.87;;
5147;SDS011;2592;48.140;7.614;2023-03-01T13:07:01;24.07;;;17.53;;
5147;SDS011;2592;48.140;7.614;2023-03-01T13:09:30;22.33;;;17.40;;
5147;SDS011;2592;48.140;7.614;2023-03-01T13:11:57;25.97;;;18.30;;
5147;SDS011;2592;48.140;7.614;2023-03-01T13:14:34;21.43;;;17.60;;
5147;SDS011;2592;48.140;7.614;2023-03-01T13:17:01;23.10;;;18.67;;
5147;SDS011;2592;48.140;7.614;2023-03-01T13:19:28;26.20;;;20.47;;
5147;SDS011;2592;48.140;7.614;2023-03-01T13:21:55;27.33;;;19.10;;
5147;SDS011;2592;48.140;7.614;2023-03-01T13:24:26;24.43;;;18.30;;
5147;SDS011;2592;48.140;7.614;2023-03-01T13:27:09;22.60;;;18.90;;
5147;SDS011;2592;48.140;7.614;2023-03-01T13:29:43;24.47;;;19.03;;
5147;SDS011;2592;48.140;7.614;2023-03-01T13:32:18;24.10;;;19.00;;
5147;SDS011;2592;48.140;7.614;2023-03-01T13:34:46;27.47;;;21.23;;
5147;SDS011;2592;48.140;7.614;2023-03-01T13:37:19;23.80;;;19.03;;
5147;SDS011;2592;48.140;7.614;2023-03-01T13:39:48;27.03;;;19.50;;
5147;SDS011;2592;48.140;7.614;2023-03-01T13:44:59;34.03;;;19.93;;
5147;SDS011;2592;48.140;7.614;2023-03-01T13:47:26;27.47;;;21.43;;
5147;SDS011;2592;48.140;7.614;2023-03-01T13:49:55;37.77;;;23.00;;
5147;SDS011;2592;48.140;7.614;2023-03-01T13:52:34;35.63;;;24.13;;
5147;SDS011;2592;48.140;7.614;2023-03-01T13:55:03;42.63;;;25.80;;
5147;SDS011;2592;48.140;7.614;2023-03-01T13:57:30;30.77;;;22.80;;
5147;SDS011;2592;48.140;7.614;2023-03-01T13:59:58;27.60;;;21.30;;
5147;SDS011;2592;48.140;7.614;2023-03-01T14:02:25;28.27;;;21.47;;
5147;SDS011;2592;48.140;7.614;2023-03-01T14:04:55;34.17;;;23.03;;
5147;SDS011;2592;48.140;7.614;2023-03-01T14:07:22;29.57;;;21.47;;
5147;SDS011;2592;48.140;7.614;2023-03-01T14:09:51;29.43;;;21.57;;
5147;SDS011;2592;48.140;7.614;2023-03-01T14:12:33;31.77;;;23.77;;
5147;SDS011;2592;48.140;7.614;2023-03-01T14:15:04;44.43;;;31.40;;
5147;SDS011;2592;48.140;7.614;2023-03-01T14:17:43;39.30;;;27.20;;
5147;SDS011;2592;48.140;7.614;2023-03-01T14:20:12;32.27;;;24.47;;
5147;SDS011;2592;48.140;7.614;2023-03-01T14:22:40;30.13;;;22.67;;
5147;SDS011;2592;48.140;7.614;2023-03-01T14:25:16;40.27;;;29.10;;
5147;SDS011;2592;48.140;7.614;2023-03-01T14:27:44;49.87;;;30.03;;
5147;SDS011;2592;48.140;7.614;2023-03-01T14:30:17;31.27;;;24.70;;
5147;SDS011;2592;48.140;7.614;2023-03-01T14:32:51;27.60;;;21.80;;
5147;SDS011;2592;48.140;7.614;2023-03-01T14:35:19;31.40;;;22.77;;
5147;SDS011;2592;48.140;7.614;2023-03-01T14:37:45;31.13;;;23.30;;
5147;SDS011;2592;48.140;7.614;2023-03-01T14:40:20;42.67;;;30.67;;
5147;SDS011;2592;48.140;7.614;2023-03-01T14:42:48;33.60;;;25.27;;
5147;SDS011;2592;48.140;7.614;2023-03-01T14:45:14;33.10;;;24.50;;
5147;SDS011;2592;48.140;7.614;2023-03-01T14:47:40;32.30;;;23.20;;
5147;SDS011;2592;48.140;7.614;2023-03-01T14:50:08;26.50;;;21.60;;
5147;SDS011;2592;48.140;7.614;2023-03-01T14:52:35;23.93;;;20.77;;
5147;SDS011;2592;48.140;7.614;2023-03-01T14:55:04;33.67;;;23.60;;
5147;SDS011;2592;48.140;7.614;2023-03-01T14:57:31;30.47;;;23.23;;
5147;SDS011;2592;48.140;7.614;2023-03-01T14:59:59;35.90;;;21.60;;
5147;SDS011;2592;48.140;7.614;2023-03-01T15:02:29;30.17;;;22.77;;
5147;SDS011;2592;48.140;7.614;2023-03-01T15:04:57;24.47;;;20.57;;
5147;SDS011;2592;48.140;7.614;2023-03-01T15:07:27;29.90;;;21.67;;
5147;SDS011;2592;48.140;7.614;2023-03-01T15:09:54;35.53;;;21.20;;